sensor_id;sensor_type;location;lat;lon;timestamp;P1;durP1;ratioP1;P2;durP2;ratioP2
72127;SDS011;60000;51.030;7.024;2023-11-19T00:00:15;2.90;;;1.10;;
72127;SDS011;60000;51.030;7.024;2023-11-19T00:02:44;2.47;;;1.08;;
72127;SDS011;60000;51.030;7.024;2023-11-19T00:05:10;3.55;;;1.20;;
72127;SDS011;60000;51.030;7.024;2023-11-19T00:07:39;4.47;;;1.38;;
72127;SDS011;60000;51.030;7.024;2023-11-19T00:10:11;4.15;;;1.42;;
72127;SDS011;60000;51.030;7.024;2023-11-19T00:12:38;3.30;;;1.08;;
72127;SDS011;60000;51.030;7.024;2023-11-19T00:15:06;4.38;;;1.48;;
72127;SDS011;60000;51.030;7.024;2023-11-19T00:17:36;3.05;;;1.27;;
72127;SDS011;60000;51.030;7.024;2023-11-19T00:20:14;3.42;;;1.23;;
72127;SDS011;60000;51.030;7.024;2023-11-19T00:22:44;3.80;;;1.23;;
72127;SDS011;60000;51.030;7.024;2023-11-19T00:25:13;3.63;;;1.20;;
72127;SDS011;60000;51.030;7.024;2023-11-19T00:27:39;2.67;;;0.90;;
72127;SDS011;60000;51.030;7.024;2023-11-19T00:30:05;2.80;;;1.00;;
72127;SDS011;60000;51.030;7.024;2023-11-19T00:32:34;2.40;;;0.90;;
72127;SDS011;60000;51.030;7.024;2023-11-19T00:35:03;3.85;;;1.20;;
72127;SDS011;60000;51.030;7.024;2023-11-19T00:37:29;3.55;;;1.40;;
72127;SDS011;60000;51.030;7.024;2023-11-19T00:39:55;2.50;;;1.00;;
72127;SDS011;60000;51.030;7.024;2023-11-19T00:42:26;2.40;;;1.00;;
72127;SDS011;60000;51.030;7.024;2023-11-19T00:44:52;3.40;;;1.17;;
72127;SDS011;60000;51.030;7.024;2023-11-19T00:47:18;3.78;;;1.30;;
72127;SDS011;60000;51.030;7.024;2023-11-19T00:49:47;4.03;;;1.20;;
72127;SDS011;60000;51.030;7.024;2023-11-19T00:52:19;3.20;;;1.00;;
72127;SDS011;60000;51.030;7.024;2023-11-19T00:54:45;3.13;;;1.10;;
72127;SDS011;60000;51.030;7.024;2023-11-19T00:57:10;1.88;;;0.70;;
72127;SDS011;60000;51.030;7.024;2023-11-19T00:59:36;3.20;;;1.00;;
72127;SDS011;60000;51.030;7.024;2023-11-19T01:02:02;2.75;;;1.10;;
72127;SDS011;60000;51.030;7.024;2023-11-19T01:04:32;2.72;;;1.10;;
72127;SDS011;60000;51.030;7.024;2023-11-19T01:07:02;4.65;;;1.42;;
72127;SDS011;60000;51.030;7.024;2023-11-19T01:09:33;3.20;;;1.20;;
72127;SDS011;60000;51.030;7.024;2023-11-19T01:12:01;2.85;;;1.15;;
72127;SDS011;60000;51.030;7.024;2023-11-19T01:14:30;3.97;;;1.35;;
72127;SDS011;60000;51.030;7.024;2023-11-19T01:16:56;3.97;;;1.30;;
72127;SDS011;60000;51.030;7.024;2023-11-19T01:19:22;3.40;;;1.30;;
72127;SDS011;60000;51.030;7.024;2023-11-19T01:21:49;4.70;;;1.70;;
72127;SDS011;60000;51.030;7.024;2023-11-19T01:24:15;4.97;;;1.17;;
72127;SDS011;60000;51.030;7.024;2023-11-19T01:26:41;3.30;;;1.20;;
72127;SDS011;60000;51.030;7.024;2023-11-19T01:29:10;2.88;;;1.20;;
72127;SDS011;60000;51.030;7.024;2023-11-19T01:31:39;2.67;;;0.90;;
72127;SDS011;60000;51.030;7.024;2023-11-19T01:34:07;3.53;;;1.00;;
72127;SDS011;60000;51.030;7.024;2023-11-19T01:36:34;3.13;;;1.00;;
72127;SDS011;60000;51.030;7.024;2023-11-19T01:39:00;2.78;;;1.00;;
72127;SDS011;60000;51.030;7.024;2023-11-19T01:41:26;3.10;;;1.20;;
72127;SDS011;60000;51.030;7.024;2023-11-19T01:43:52;3.63;;;1.20;;
72127;SDS011;60000;51.030;7.024;2023-11-19T01:46:18;5.93;;;1.23;;
72127;SDS011;60000;51.030;7.024;2023-11-19T01:48:44;2.30;;;0.90;;
72127;SDS011;60000;51.030;7.024;2023-11-19T01:51:14;2.88;;;1.10;;
72127;SDS011;60000;51.030;7.024;2023-11-19T01:53:42;4.43;;;1.45;;
72127;SDS011;60000;51.030;7.024;2023-11-19T01:56:09;3.35;;;1.27;;
72127;SDS011;60000;51.030;7.024;2023-11-19T01:58:38;5.35;;;1.25;;
72127;SDS011;60000;51.030;7.024;2023-11-19T02:01:06;5.38;;;1.90;;
72127;SDS011;60000;51.030;7.024;2023-11-19T02:03:32;3.42;;;1.40;;
72127;SDS011;60000;51.030;7.024;2023-11-19T02:06:02;3.75;;;1.33;;
72127;SDS011;60000;51.030;7.024;2023-11-19T02:08:29;3.42;;;1.38;;
72127;SDS011;60000;51.030;7.024;2023-11-19T02:10:57;4.75;;;1.27;;
72127;SDS011;60000;51.030;7.024;2023-11-19T02:13:30;2.93;;;1.27;;
72127;SDS011;60000;51.030;7.024;2023-11-19T02:16:03;3.50;;;1.20;;
72127;SDS011;60000;51.030;7.024;2023-11-19T02:18:33;5.00;;;1.10;;
72127;SDS011;60000;51.030;7.024;2023-11-19T02:21:00;3.85;;;1.00;;
72127;SDS011;60000;51.030;7.024;2023-11-19T02:23:42;3.93;;;1.20;;
72127;SDS011;60000;51.030;7.024;2023-11-19T02:29:39;4.65;;;1.33;;
72127;SDS011;60000;51.030;7.024;2023-11-19T02:32:27;3.80;;;1.13;;
72127;SDS011;60000;51.030;7.024;2023-11-19T02:35:32;4.03;;;1.20;;
72127;SDS011;60000;51.030;7.024;2023-11-19T02:38:08;4.20;;;1.73;;
72127;SDS011;60000;51.030;7.024;2023-11-19T02:41:05;3.45;;;1.10;;
72127;SDS011;60000;51.030;7.024;2023-11-19T02:43:50;5.80;;;1.77;;
72127;SDS011;60000;51.030;7.024;2023-11-19T02:46:50;3.40;;;1.15;;
72127;SDS011;60000;51.030;7.024;2023-11-19T02:49:42;3.85;;;1.30;;
72127;SDS011;60000;51.030;7.024;2023-11-19T02:55:21;3.33;;;1.13;;
72127;SDS011;60000;51.030;7.024;2023-11-19T02:57:58;3.17;;;1.10;;
72127;SDS011;60000;51.030;7.024;2023-11-19T03:00:34;3.72;;;1.00;;
72127;SDS011;60000;51.030;7.024;2023-11-19T03:03:38;6.43;;;1.20;;
72127;SDS011;60000;51.030;7.024;2023-11-19T03:06:45;4.37;;;1.30;;
72127;SDS011;60000;51.030;7.024;2023-11-19T03:09:30;5.72;;;1.20;;
72127;SDS011;60000;51.030;7.024;2023-11-19T03:12:12;3.05;;;0.98;;
72127;SDS011;60000;51.030;7.024;2023-11-19T03:14:48;3.58;;;1.08;;
72127;SDS011;60000;51.030;7.024;2023-11-19T03:18:15;3.85;;;1.20;;
72127;SDS011;60000;51.030;7.024;2023-11-19T03:31:14;5.72;;;1.15;;
72127;SDS011;60000;51.030;7.024;2023-11-19T03:40:39;6.05;;;1.27;;
72127;SDS011;60000;51.030;7.024;2023-11-19T03:43:50;5.03;;;1.50;;
72127;SDS011;60000;51.030;7.024;2023-11-19T03:47:13;5.97;;;1.52;;
72127;SDS011;60000;51.030;7.024;2023-11-19T03:56:48;6.78;;;1.33;;
72127;SDS011;60000;51.030;7.024;2023-11-19T04:03:24;5.93;;;1.30;;
72127;SDS011;60000;51.030;7.024;2023-11-19T04:06:43;6.93;;;1.38;;
72127;SDS011;60000;51.030;7.024;2023-11-19T04:09:45;3.53;;;1.40;;
72127;SDS011;60000;51.030;7.024;2023-11-19T04:12:11;4.40;;;1.13;;
72127;SDS011;60000;51.030;7.024;2023-11-19T04:14:37;8.80;;;1.67;;
72127;SDS011;60000;51.030;7.024;2023-11-19T04:17:02;8.50;;;2.33;;
72127;SDS011;60000;51.030;7.024;2023-11-19T04:19:28;7.10;;;1.60;;
72127;SDS011;60000;51.030;7.024;2023-11-19T04:21:53;6.07;;;1.60;;
72127;SDS011;60000;51.030;7.024;2023-11-19T04:24:18;7.70;;;1.53;;
72127;SDS011;60000;51.030;7.024;2023-11-19T04:26:44;7.07;;;1.60;;
72127;SDS011;60000;51.030;7.024;2023-11-19T04:29:14;9.95;;;1.60;;
72127;SDS011;60000;51.030;7.024;2023-11-19T04:31:41;11.65;;;2.28;;
72127;SDS011;60000;51.030;7.024;2023-11-19T04:34:07;10.93;;;1.80;;
72127;SDS011;60000;51.030;7.024;2023-11-19T04:36:33;9.10;;;1.95;;
72127;SDS011;60000;51.030;7.024;2023-11-19T04:38:59;7.50;;;1.58;;
72127;SDS011;60000;51.030;7.024;2023-11-19T04:41:25;7.45;;;1.73;;
72127;SDS011;60000;51.030;7.024;2023-11-19T04:43:52;6.38;;;1.48;;
72127;SDS011;60000;51.030;7.024;2023-11-19T04:46:18;8.68;;;1.80;;
72127;SDS011;60000;51.030;7.024;2023-11-19T04:48:44;12.87;;;1.80;;
72127;SDS011;60000;51.030;7.024;2023-11-19T04:51:09;13.77;;;2.50;;
72127;SDS011;60000;51.030;7.024;2023-11-19T04:53:34;10.57;;;2.10;;
72127;SDS011;60000;51.030;7.024;2023-11-19T04:56:00;12.07;;;2.38;;
72127;SDS011;60000;51.030;7.024;2023-11-19T04:58:25;12.77;;;2.53;;
72127;SDS011;60000;51.030;7.024;2023-11-19T05:00:50;16.47;;;2.90;;
72127;SDS011;60000;51.030;7.024;2023-11-19T05:03:16;13.27;;;3.10;;
72127;SDS011;60000;51.030;7.024;2023-11-19T05:05:41;15.50;;;3.10;;
72127;SDS011;60000;51.030;7.024;2023-11-19T05:08:06;13.90;;;2.70;;
72127;SDS011;60000;51.030;7.024;2023-11-19T05:10:32;12.80;;;2.60;;
72127;SDS011;60000;51.030;7.024;2023-11-19T05:12:57;14.20;;;2.90;;
72127;SDS011;60000;51.030;7.024;2023-11-19T05:15:22;9.93;;;2.43;;
72127;SDS011;60000;51.030;7.024;2023-11-19T05:17:48;15.77;;;3.00;;
72127;SDS011;60000;51.030;7.024;2023-11-19T05:20:14;19.27;;;3.47;;
72127;SDS011;60000;51.030;7.024;2023-11-19T05:22:40;12.77;;;2.15;;
72127;SDS011;60000;51.030;7.024;2023-11-19T05:25:06;13.93;;;2.28;;
72127;SDS011;60000;51.030;7.024;2023-11-19T05:27:33;16.50;;;2.50;;
72127;SDS011;60000;51.030;7.024;2023-11-19T05:29:58;15.73;;;3.03;;
72127;SDS011;60000;51.030;7.024;2023-11-19T05:32:23;12.73;;;2.60;;
72127;SDS011;60000;51.030;7.024;2023-11-19T05:34:48;10.33;;;2.13;;
72127;SDS011;60000;51.030;7.024;2023-11-19T05:37:14;14.80;;;2.10;;
72127;SDS011;60000;51.030;7.024;2023-11-19T05:39:39;11.15;;;2.42;;
72127;SDS011;60000;51.030;7.024;2023-11-19T05:42:04;15.87;;;2.60;;
72127;SDS011;60000;51.030;7.024;2023-11-19T05:44:30;14.93;;;3.13;;
72127;SDS011;60000;51.030;7.024;2023-11-19T05:46:56;14.48;;;2.60;;
72127;SDS011;60000;51.030;7.024;2023-11-19T05:49:21;12.80;;;2.37;;
72127;SDS011;60000;51.030;7.024;2023-11-19T05:51:46;16.30;;;2.93;;
72127;SDS011;60000;51.030;7.024;2023-11-19T05:54:11;15.40;;;3.10;;
72127;SDS011;60000;51.030;7.024;2023-11-19T05:56:38;13.40;;;2.65;;
72127;SDS011;60000;51.030;7.024;2023-11-19T05:59:04;13.93;;;2.30;;
72127;SDS011;60000;51.030;7.024;2023-11-19T06:01:35;16.23;;;2.92;;
72127;SDS011;60000;51.030;7.024;2023-11-19T06:04:01;15.77;;;2.55;;
72127;SDS011;60000;51.030;7.024;2023-11-19T06:06:27;15.93;;;2.20;;
72127;SDS011;60000;51.030;7.024;2023-11-19T06:08:53;13.75;;;2.30;;
72127;SDS011;60000;51.030;7.024;2023-11-19T06:11:19;13.30;;;2.95;;
72127;SDS011;60000;51.030;7.024;2023-11-19T06:13:45;16.67;;;2.60;;
72127;SDS011;60000;51.030;7.024;2023-11-19T06:16:12;17.45;;;2.58;;
72127;SDS011;60000;51.030;7.024;2023-11-19T06:18:38;16.67;;;3.53;;
72127;SDS011;60000;51.030;7.024;2023-11-19T06:21:03;16.20;;;2.80;;
72127;SDS011;60000;51.030;7.024;2023-11-19T06:23:29;17.15;;;2.70;;
72127;SDS011;60000;51.030;7.024;2023-11-19T06:25:54;13.47;;;2.63;;
72127;SDS011;60000;51.030;7.024;2023-11-19T06:28:19;14.93;;;2.90;;
72127;SDS011;60000;51.030;7.024;2023-11-19T06:30:45;15.17;;;2.77;;
72127;SDS011;60000;51.030;7.024;2023-11-19T06:33:13;19.37;;;2.90;;
72127;SDS011;60000;51.030;7.024;2023-11-19T06:35:39;12.48;;;2.00;;
72127;SDS011;60000;51.030;7.024;2023-11-19T06:38:04;14.68;;;2.55;;
72127;SDS011;60000;51.030;7.024;2023-11-19T06:40:30;18.50;;;3.00;;
72127;SDS011;60000;51.030;7.024;2023-11-19T06:42:56;15.50;;;2.85;;
72127;SDS011;60000;51.030;7.024;2023-11-19T06:45:22;15.50;;;2.30;;
72127;SDS011;60000;51.030;7.024;2023-11-19T06:47:48;15.68;;;2.55;;
72127;SDS011;60000;51.030;7.024;2023-11-19T06:50:15;18.13;;;2.92;;
72127;SDS011;60000;51.030;7.024;2023-11-19T06:52:40;25.73;;;3.00;;
72127;SDS011;60000;51.030;7.024;2023-11-19T06:55:06;19.30;;;2.90;;
72127;SDS011;60000;51.030;7.024;2023-11-19T06:57:32;23.52;;;3.03;;
72127;SDS011;60000;51.030;7.024;2023-11-19T06:59:57;13.07;;;2.87;;
72127;SDS011;60000;51.030;7.024;2023-11-19T07:02:23;22.15;;;3.20;;
72127;SDS011;60000;51.030;7.024;2023-11-19T07:04:49;17.13;;;2.90;;
72127;SDS011;60000;51.030;7.024;2023-11-19T07:07:14;18.33;;;2.87;;
72127;SDS011;60000;51.030;7.024;2023-11-19T07:09:40;16.48;;;2.72;;
72127;SDS011;60000;51.030;7.024;2023-11-19T07:12:05;17.23;;;3.87;;
72127;SDS011;60000;51.030;7.024;2023-11-19T07:14:31;17.25;;;3.10;;
72127;SDS011;60000;51.030;7.024;2023-11-19T07:16:56;18.13;;;3.13;;
72127;SDS011;60000;51.030;7.024;2023-11-19T07:19:22;16.53;;;3.17;;
72127;SDS011;60000;51.030;7.024;2023-11-19T07:21:47;23.63;;;3.40;;
72127;SDS011;60000;51.030;7.024;2023-11-19T07:24:13;18.58;;;3.53;;
72127;SDS011;60000;51.030;7.024;2023-11-19T07:26:45;17.88;;;3.53;;
72127;SDS011;60000;51.030;7.024;2023-11-19T07:29:12;14.90;;;3.10;;
72127;SDS011;60000;51.030;7.024;2023-11-19T07:31:41;17.42;;;3.65;;
72127;SDS011;60000;51.030;7.024;2023-11-19T07:34:09;18.40;;;3.28;;
72127;SDS011;60000;51.030;7.024;2023-11-19T07:36:35;23.83;;;3.58;;
72127;SDS011;60000;51.030;7.024;2023-11-19T07:39:01;21.67;;;3.60;;
72127;SDS011;60000;51.030;7.024;2023-11-19T07:41:27;17.13;;;3.40;;
72127;SDS011;60000;51.030;7.024;2023-11-19T07:43:52;16.17;;;3.10;;
72127;SDS011;60000;51.030;7.024;2023-11-19T07:46:18;17.65;;;2.90;;
72127;SDS011;60000;51.030;7.024;2023-11-19T07:48:46;16.70;;;3.55;;
72127;SDS011;60000;51.030;7.024;2023-11-19T07:51:12;17.47;;;2.73;;
72127;SDS011;60000;51.030;7.024;2023-11-19T07:53:39;19.70;;;3.10;;
72127;SDS011;60000;51.030;7.024;2023-11-19T07:56:05;15.70;;;2.67;;
72127;SDS011;60000;51.030;7.024;2023-11-19T07:58:31;14.47;;;2.60;;
72127;SDS011;60000;51.030;7.024;2023-11-19T08:00:57;16.17;;;3.13;;
72127;SDS011;60000;51.030;7.024;2023-11-19T08:03:22;27.10;;;3.83;;
72127;SDS011;60000;51.030;7.024;2023-11-19T08:05:48;16.67;;;3.00;;
72127;SDS011;60000;51.030;7.024;2023-11-19T08:08:14;16.45;;;2.28;;
72127;SDS011;60000;51.030;7.024;2023-11-19T08:10:39;19.47;;;2.63;;
72127;SDS011;60000;51.030;7.024;2023-11-19T08:13:05;18.15;;;3.38;;
72127;SDS011;60000;51.030;7.024;2023-11-19T08:15:31;17.23;;;2.40;;
72127;SDS011;60000;51.030;7.024;2023-11-19T08:17:56;19.33;;;2.95;;
72127;SDS011;60000;51.030;7.024;2023-11-19T08:20:22;15.83;;;2.17;;
72127;SDS011;60000;51.030;7.024;2023-11-19T08:22:47;15.83;;;3.30;;
72127;SDS011;60000;51.030;7.024;2023-11-19T08:25:13;15.65;;;2.33;;
72127;SDS011;60000;51.030;7.024;2023-11-19T08:27:38;19.27;;;2.67;;
72127;SDS011;60000;51.030;7.024;2023-11-19T08:30:04;15.17;;;2.23;;
72127;SDS011;60000;51.030;7.024;2023-11-19T08:32:31;16.63;;;2.58;;
72127;SDS011;60000;51.030;7.024;2023-11-19T08:34:56;14.83;;;2.50;;
72127;SDS011;60000;51.030;7.024;2023-11-19T08:37:21;13.10;;;2.50;;
72127;SDS011;60000;51.030;7.024;2023-11-19T08:39:47;22.27;;;3.40;;
72127;SDS011;60000;51.030;7.024;2023-11-19T08:42:13;15.07;;;2.88;;
72127;SDS011;60000;51.030;7.024;2023-11-19T08:44:39;19.17;;;2.83;;
72127;SDS011;60000;51.030;7.024;2023-11-19T08:47:04;20.75;;;3.08;;
72127;SDS011;60000;51.030;7.024;2023-11-19T08:49:29;16.20;;;2.28;;
72127;SDS011;60000;51.030;7.024;2023-11-19T08:51:55;16.30;;;2.97;;
72127;SDS011;60000;51.030;7.024;2023-11-19T08:54:20;18.93;;;3.10;;
72127;SDS011;60000;51.030;7.024;2023-11-19T08:56:47;15.98;;;2.78;;
72127;SDS011;60000;51.030;7.024;2023-11-19T08:59:13;15.87;;;2.90;;
72127;SDS011;60000;51.030;7.024;2023-11-19T09:01:40;15.63;;;3.38;;
72127;SDS011;60000;51.030;7.024;2023-11-19T09:04:06;17.63;;;2.70;;
72127;SDS011;60000;51.030;7.024;2023-11-19T09:06:31;18.80;;;2.85;;
72127;SDS011;60000;51.030;7.024;2023-11-19T09:08:56;19.35;;;3.13;;
72127;SDS011;60000;51.030;7.024;2023-11-19T09:11:25;16.80;;;3.60;;
72127;SDS011;60000;51.030;7.024;2023-11-19T09:13:51;17.40;;;3.03;;
72127;SDS011;60000;51.030;7.024;2023-11-19T09:16:16;15.50;;;2.60;;
72127;SDS011;60000;51.030;7.024;2023-11-19T09:18:41;16.03;;;2.60;;
72127;SDS011;60000;51.030;7.024;2023-11-19T09:21:07;20.30;;;3.10;;
72127;SDS011;60000;51.030;7.024;2023-11-19T09:23:32;15.20;;;2.53;;
72127;SDS011;60000;51.030;7.024;2023-11-19T09:26:03;22.27;;;2.28;;
72127;SDS011;60000;51.030;7.024;2023-11-19T09:28:30;15.52;;;3.05;;
72127;SDS011;60000;51.030;7.024;2023-11-19T09:30:55;16.03;;;2.80;;
72127;SDS011;60000;51.030;7.024;2023-11-19T09:33:21;21.25;;;2.92;;
72127;SDS011;60000;51.030;7.024;2023-11-19T09:35:46;15.93;;;3.65;;
72127;SDS011;60000;51.030;7.024;2023-11-19T09:38:11;22.20;;;4.20;;
72127;SDS011;60000;51.030;7.024;2023-11-19T09:40:37;24.73;;;4.03;;
72127;SDS011;60000;51.030;7.024;2023-11-19T09:43:04;16.88;;;4.00;;
72127;SDS011;60000;51.030;7.024;2023-11-19T09:45:30;20.05;;;3.50;;
72127;SDS011;60000;51.030;7.024;2023-11-19T09:48:03;18.35;;;3.35;;
72127;SDS011;60000;51.030;7.024;2023-11-19T09:50:29;17.23;;;2.83;;
72127;SDS011;60000;51.030;7.024;2023-11-19T09:52:55;16.70;;;3.03;;
72127;SDS011;60000;51.030;7.024;2023-11-19T09:55:21;20.10;;;2.93;;
72127;SDS011;60000;51.030;7.024;2023-11-19T09:57:46;14.20;;;2.80;;
72127;SDS011;60000;51.030;7.024;2023-11-19T10:00:14;16.67;;;3.08;;
72127;SDS011;60000;51.030;7.024;2023-11-19T10:02:41;20.13;;;3.67;;
72127;SDS011;60000;51.030;7.024;2023-11-19T10:05:11;16.10;;;2.90;;
72127;SDS011;60000;51.030;7.024;2023-11-19T10:07:37;21.00;;;2.83;;
72127;SDS011;60000;51.030;7.024;2023-11-19T10:10:03;14.90;;;2.85;;
72127;SDS011;60000;51.030;7.024;2023-11-19T10:12:29;14.68;;;2.88;;
72127;SDS011;60000;51.030;7.024;2023-11-19T10:14:58;17.13;;;3.33;;
72127;SDS011;60000;51.030;7.024;2023-11-19T10:17:27;18.27;;;2.63;;
72127;SDS011;60000;51.030;7.024;2023-11-19T10:19:54;19.92;;;3.40;;
72127;SDS011;60000;51.030;7.024;2023-11-19T10:22:20;16.13;;;3.50;;
72127;SDS011;60000;51.030;7.024;2023-11-19T10:24:47;15.50;;;2.90;;
72127;SDS011;60000;51.030;7.024;2023-11-19T10:27:13;14.27;;;2.40;;
72127;SDS011;60000;51.030;7.024;2023-11-19T10:29:39;16.27;;;3.05;;
72127;SDS011;60000;51.030;7.024;2023-11-19T10:32:05;28.10;;;4.23;;
72127;SDS011;60000;51.030;7.024;2023-11-19T10:34:30;22.97;;;3.47;;
72127;SDS011;60000;51.030;7.024;2023-11-19T10:36:56;17.50;;;2.93;;
72127;SDS011;60000;51.030;7.024;2023-11-19T10:39:21;15.43;;;2.73;;
72127;SDS011;60000;51.030;7.024;2023-11-19T10:41:48;14.43;;;3.13;;
72127;SDS011;60000;51.030;7.024;2023-11-19T10:44:30;16.95;;;2.80;;
72127;SDS011;60000;51.030;7.024;2023-11-19T10:46:57;15.45;;;2.65;;
72127;SDS011;60000;51.030;7.024;2023-11-19T10:49:22;17.67;;;2.80;;
72127;SDS011;60000;51.030;7.024;2023-11-19T10:51:47;16.55;;;2.95;;
72127;SDS011;60000;51.030;7.024;2023-11-19T10:54:15;13.20;;;3.00;;
72127;SDS011;60000;51.030;7.024;2023-11-19T10:56:43;15.35;;;2.53;;
72127;SDS011;60000;51.030;7.024;2023-11-19T10:59:09;15.93;;;3.08;;
72127;SDS011;60000;51.030;7.024;2023-11-19T11:01:45;16.58;;;2.40;;
72127;SDS011;60000;51.030;7.024;2023-11-19T11:04:17;16.48;;;3.33;;
72127;SDS011;60000;51.030;7.024;2023-11-19T11:06:47;13.13;;;2.30;;
72127;SDS011;60000;51.030;7.024;2023-11-19T11:09:12;16.20;;;3.28;;
72127;SDS011;60000;51.030;7.024;2023-11-19T11:11:40;15.23;;;2.60;;
72127;SDS011;60000;51.030;7.024;2023-11-19T11:14:08;13.70;;;3.10;;
72127;SDS011;60000;51.030;7.024;2023-11-19T11:16:37;18.95;;;3.50;;
72127;SDS011;60000;51.030;7.024;2023-11-19T11:19:05;16.30;;;3.00;;
72127;SDS011;60000;51.030;7.024;2023-11-19T11:21:30;17.13;;;3.30;;
72127;SDS011;60000;51.030;7.024;2023-11-19T11:24:16;15.38;;;2.75;;
72127;SDS011;60000;51.030;7.024;2023-11-19T11:27:45;15.10;;;2.63;;
72127;SDS011;60000;51.030;7.024;2023-11-19T11:38:06;16.60;;;3.53;;
72127;SDS011;60000;51.030;7.024;2023-11-19T11:40:33;12.63;;;2.42;;
72127;SDS011;60000;51.030;7.024;2023-11-19T11:42:59;18.80;;;2.95;;
72127;SDS011;60000;51.030;7.024;2023-11-19T11:45:38;15.53;;;3.70;;
72127;SDS011;60000;51.030;7.024;2023-11-19T11:48:10;18.55;;;3.47;;
72127;SDS011;60000;51.030;7.024;2023-11-19T11:50:50;18.45;;;4.50;;
72127;SDS011;60000;51.030;7.024;2023-11-19T11:53:23;13.10;;;2.58;;
72127;SDS011;60000;51.030;7.024;2023-11-19T11:58:17;13.80;;;3.30;;
72127;SDS011;60000;51.030;7.024;2023-11-19T12:00:46;16.88;;;3.22;;
72127;SDS011;60000;51.030;7.024;2023-11-19T12:03:13;15.35;;;2.20;;
72127;SDS011;60000;51.030;7.024;2023-11-19T12:05:43;16.60;;;2.95;;
72127;SDS011;60000;51.030;7.024;2023-11-19T12:08:10;10.88;;;2.47;;
72127;SDS011;60000;51.030;7.024;2023-11-19T12:10:47;15.07;;;2.83;;
72127;SDS011;60000;51.030;7.024;2023-11-19T12:13:14;16.65;;;2.80;;
72127;SDS011;60000;51.030;7.024;2023-11-19T12:18:21;13.90;;;3.05;;
72127;SDS011;60000;51.030;7.024;2023-11-19T12:20:48;14.65;;;3.20;;
72127;SDS011;60000;51.030;7.024;2023-11-19T12:23:14;12.73;;;2.70;;
72127;SDS011;60000;51.030;7.024;2023-11-19T12:25:39;13.20;;;2.53;;
72127;SDS011;60000;51.030;7.024;2023-11-19T12:28:04;12.07;;;2.93;;
72127;SDS011;60000;51.030;7.024;2023-11-19T12:30:30;12.07;;;2.40;;
72127;SDS011;60000;51.030;7.024;2023-11-19T12:32:56;10.53;;;2.10;;
72127;SDS011;60000;51.030;7.024;2023-11-19T12:35:21;18.70;;;2.90;;
72127;SDS011;60000;51.030;7.024;2023-11-19T12:37:48;13.88;;;2.20;;
72127;SDS011;60000;51.030;7.024;2023-11-19T12:40:19;14.73;;;2.85;;
72127;SDS011;60000;51.030;7.024;2023-11-19T12:42:54;16.10;;;3.15;;
72127;SDS011;60000;51.030;7.024;2023-11-19T12:45:20;15.02;;;3.05;;
72127;SDS011;60000;51.030;7.024;2023-11-19T12:47:47;14.30;;;2.67;;
72127;SDS011;60000;51.030;7.024;2023-11-19T12:50:14;13.07;;;2.08;;
72127;SDS011;60000;51.030;7.024;2023-11-19T12:52:40;19.15;;;3.90;;
72127;SDS011;60000;51.030;7.024;2023-11-19T12:55:23;10.07;;;2.87;;
72127;SDS011;60000;51.030;7.024;2023-11-19T12:57:53;10.65;;;2.05;;
72127;SDS011;60000;51.030;7.024;2023-11-19T13:00:21;10.95;;;2.10;;
72127;SDS011;60000;51.030;7.024;2023-11-19T13:02:51;19.63;;;3.15;;
72127;SDS011;60000;51.030;7.024;2023-11-19T13:07:51;12.40;;;2.22;;
72127;SDS011;60000;51.030;7.024;2023-11-19T13:10:24;10.70;;;1.75;;
72127;SDS011;60000;51.030;7.024;2023-11-19T13:13:08;11.37;;;2.00;;
72127;SDS011;60000;51.030;7.024;2023-11-19T13:15:36;13.32;;;2.40;;
72127;SDS011;60000;51.030;7.024;2023-11-19T13:18:02;13.10;;;4.00;;
72127;SDS011;60000;51.030;7.024;2023-11-19T13:20:28;15.37;;;3.30;;
72127;SDS011;60000;51.030;7.024;2023-11-19T13:25:26;11.77;;;2.50;;
72127;SDS011;60000;51.030;7.024;2023-11-19T13:27:52;15.18;;;3.20;;
72127;SDS011;60000;51.030;7.024;2023-11-19T13:30:18;11.83;;;2.23;;
72127;SDS011;60000;51.030;7.024;2023-11-19T13:32:43;10.87;;;2.00;;
72127;SDS011;60000;51.030;7.024;2023-11-19T13:35:11;11.80;;;2.00;;
72127;SDS011;60000;51.030;7.024;2023-11-19T13:37:39;11.73;;;2.10;;
72127;SDS011;60000;51.030;7.024;2023-11-19T13:40:08;15.27;;;2.28;;
72127;SDS011;60000;51.030;7.024;2023-11-19T13:42:35;15.50;;;3.10;;
72127;SDS011;60000;51.030;7.024;2023-11-19T13:45:05;18.25;;;2.95;;
72127;SDS011;60000;51.030;7.024;2023-11-19T13:47:38;12.77;;;2.70;;
72127;SDS011;60000;51.030;7.024;2023-11-19T13:50:06;15.57;;;2.90;;
72127;SDS011;60000;51.030;7.024;2023-11-19T13:52:34;13.18;;;2.50;;
72127;SDS011;60000;51.030;7.024;2023-11-19T13:54:59;9.10;;;2.70;;
72127;SDS011;60000;51.030;7.024;2023-11-19T13:57:24;16.20;;;2.33;;
72127;SDS011;60000;51.030;7.024;2023-11-19T13:59:50;13.17;;;2.40;;
72127;SDS011;60000;51.030;7.024;2023-11-19T14:02:15;18.23;;;2.40;;
72127;SDS011;60000;51.030;7.024;2023-11-19T14:04:40;14.23;;;3.10;;
72127;SDS011;60000;51.030;7.024;2023-11-19T14:07:06;14.57;;;2.83;;
72127;SDS011;60000;51.030;7.024;2023-11-19T14:09:31;18.40;;;2.97;;
72127;SDS011;60000;51.030;7.024;2023-11-19T14:11:57;12.43;;;2.83;;
72127;SDS011;60000;51.030;7.024;2023-11-19T14:14:22;10.60;;;1.97;;
72127;SDS011;60000;51.030;7.024;2023-11-19T14:16:47;15.67;;;2.63;;
72127;SDS011;60000;51.030;7.024;2023-11-19T14:19:12;15.50;;;3.10;;
72127;SDS011;60000;51.030;7.024;2023-11-19T14:21:38;15.35;;;3.30;;
72127;SDS011;60000;51.030;7.024;2023-11-19T14:24:04;15.13;;;3.67;;
72127;SDS011;60000;51.030;7.024;2023-11-19T14:26:30;14.48;;;2.80;;
72127;SDS011;60000;51.030;7.024;2023-11-19T14:28:55;19.33;;;4.37;;
72127;SDS011;60000;51.030;7.024;2023-11-19T14:31:20;15.87;;;2.70;;
72127;SDS011;60000;51.030;7.024;2023-11-19T14:33:46;15.43;;;2.92;;
72127;SDS011;60000;51.030;7.024;2023-11-19T14:36:11;13.67;;;2.40;;
72127;SDS011;60000;51.030;7.024;2023-11-19T14:38:36;13.33;;;2.90;;
72127;SDS011;60000;51.030;7.024;2023-11-19T14:41:02;17.27;;;3.90;;
72127;SDS011;60000;51.030;7.024;2023-11-19T14:43:27;13.53;;;2.77;;
72127;SDS011;60000;51.030;7.024;2023-11-19T14:45:52;15.40;;;2.50;;
72127;SDS011;60000;51.030;7.024;2023-11-19T14:48:18;11.63;;;2.20;;
72127;SDS011;60000;51.030;7.024;2023-11-19T14:50:43;8.53;;;1.60;;
72127;SDS011;60000;51.030;7.024;2023-11-19T14:53:09;13.35;;;2.00;;
72127;SDS011;60000;51.030;7.024;2023-11-19T14:55:36;10.57;;;2.05;;
72127;SDS011;60000;51.030;7.024;2023-11-19T14:58:01;14.07;;;2.58;;
72127;SDS011;60000;51.030;7.024;2023-11-19T15:00:26;14.88;;;2.97;;
72127;SDS011;60000;51.030;7.024;2023-11-19T15:02:52;13.20;;;2.30;;
72127;SDS011;60000;51.030;7.024;2023-11-19T15:05:17;11.53;;;2.27;;
72127;SDS011;60000;51.030;7.024;2023-11-19T15:07:42;11.93;;;2.03;;
72127;SDS011;60000;51.030;7.024;2023-11-19T15:10:08;15.60;;;2.60;;
72127;SDS011;60000;51.030;7.024;2023-11-19T15:12:37;10.80;;;2.08;;
72127;SDS011;60000;51.030;7.024;2023-11-19T15:15:05;9.43;;;2.05;;
72127;SDS011;60000;51.030;7.024;2023-11-19T15:17:33;10.87;;;2.50;;
72127;SDS011;60000;51.030;7.024;2023-11-19T15:19:58;14.98;;;2.47;;
72127;SDS011;60000;51.030;7.024;2023-11-19T15:22:24;14.05;;;2.10;;
72127;SDS011;60000;51.030;7.024;2023-11-19T15:24:49;12.50;;;1.90;;
72127;SDS011;60000;51.030;7.024;2023-11-19T15:27:14;12.50;;;2.20;;
72127;SDS011;60000;51.030;7.024;2023-11-19T15:29:39;10.70;;;2.00;;
72127;SDS011;60000;51.030;7.024;2023-11-19T15:32:05;12.53;;;2.40;;
72127;SDS011;60000;51.030;7.024;2023-11-19T15:34:32;13.45;;;2.63;;
72127;SDS011;60000;51.030;7.024;2023-11-19T15:36:58;12.35;;;2.30;;
72127;SDS011;60000;51.030;7.024;2023-11-19T15:39:23;14.60;;;2.40;;